sensor_id;sensor_type;location;lat;lon;timestamp;P1;durP1;ratioP1;P2;durP2;ratioP2
15603;SDS011;7902;49.042;9.092;2022-10-13T00:00:26;37.03;;;15.10;;
15603;SDS011;7902;49.042;9.092;2022-10-13T00:02:52;39.37;;;14.70;;
15603;SDS011;7902;49.042;9.092;2022-10-13T00:05:18;52.53;;;20.70;;
15603;SDS011;7902;49.042;9.092;2022-10-13T00:07:44;167.80;;;62.57;;
15603;SDS011;7902;49.042;9.092;2022-10-13T00:10:10;76.50;;;31.00;;
15603;SDS011;7902;49.042;9.092;2022-10-13T00:12:36;99.47;;;39.53;;
15603;SDS011;7902;49.042;9.092;2022-10-13T00:15:04;87.37;;;36.27;;
15603;SDS011;7902;49.042;9.092;2022-10-13T00:17:31;93.67;;;38.27;;
15603;SDS011;7902;49.042;9.092;2022-10-13T00:19:58;107.13;;;39.13;;
15603;SDS011;7902;49.042;9.092;2022-10-13T00:22:24;81.90;;;31.83;;
15603;SDS011;7902;49.042;9.092;2022-10-13T00:24:52;271.87;;;99.23;;
15603;SDS011;7902;49.042;9.092;2022-10-13T00:27:18;158.30;;;55.50;;
15603;SDS011;7902;49.042;9.092;2022-10-13T00:29:44;108.13;;;41.40;;
15603;SDS011;7902;49.042;9.092;2022-10-13T00:32:11;66.83;;;26.40;;
15603;SDS011;7902;49.042;9.092;2022-10-13T00:34:36;53.40;;;19.90;;
15603;SDS011;7902;49.042;9.092;2022-10-13T00:37:03;56.93;;;14.67;;
15603;SDS011;7902;49.042;9.092;2022-10-13T00:39:29;88.83;;;31.83;;
15603;SDS011;7902;49.042;9.092;2022-10-13T00:41:56;39.00;;;16.03;;
15603;SDS011;7902;49.042;9.092;2022-10-13T00:47:40;56.33;;;27.80;;
15603;SDS011;7902;49.042;9.092;2022-10-13T00:50:10;40.87;;;17.60;;
15603;SDS011;7902;49.042;9.092;2022-10-13T00:52:39;46.47;;;19.23;;
15603;SDS011;7902;49.042;9.092;2022-10-13T00:55:06;47.60;;;20.67;;
15603;SDS011;7902;49.042;9.092;2022-10-13T00:57:35;36.00;;;15.73;;
15603;SDS011;7902;49.042;9.092;2022-10-13T01:00:05;35.63;;;13.67;;
15603;SDS011;7902;49.042;9.092;2022-10-13T01:02:32;37.10;;;14.73;;
15603;SDS011;7902;49.042;9.092;2022-10-13T01:05:01;41.73;;;17.43;;
15603;SDS011;7902;49.042;9.092;2022-10-13T01:07:28;46.67;;;18.47;;
15603;SDS011;7902;49.042;9.092;2022-10-13T01:09:54;48.83;;;17.30;;
15603;SDS011;7902;49.042;9.092;2022-10-13T01:15:49;43.27;;;17.47;;
15603;SDS011;7902;49.042;9.092;2022-10-13T01:20:59;50.27;;;15.30;;
15603;SDS011;7902;49.042;9.092;2022-10-13T01:28:44;32.10;;;12.90;;
15603;SDS011;7902;49.042;9.092;2022-10-13T01:31:18;42.80;;;16.27;;
15603;SDS011;7902;49.042;9.092;2022-10-13T01:33:56;49.80;;;22.57;;
15603;SDS011;7902;49.042;9.092;2022-10-13T01:36:41;55.40;;;19.60;;
15603;SDS011;7902;49.042;9.092;2022-10-13T01:39:35;38.83;;;15.00;;
15603;SDS011;7902;49.042;9.092;2022-10-13T01:42:14;38.93;;;14.80;;
15603;SDS011;7902;49.042;9.092;2022-10-13T01:44:53;25.87;;;12.93;;
15603;SDS011;7902;49.042;9.092;2022-10-13T01:47:25;49.97;;;15.17;;
15603;SDS011;7902;49.042;9.092;2022-10-13T01:49:53;44.43;;;14.53;;
15603;SDS011;7902;49.042;9.092;2022-10-13T01:52:21;28.57;;;12.43;;
15603;SDS011;7902;49.042;9.092;2022-10-13T01:54:51;32.03;;;13.90;;
15603;SDS011;7902;49.042;9.092;2022-10-13T01:57:28;32.43;;;12.77;;
15603;SDS011;7902;49.042;9.092;2022-10-13T01:59:59;40.80;;;12.30;;
15603;SDS011;7902;49.042;9.092;2022-10-13T02:02:31;32.13;;;12.63;;
15603;SDS011;7902;49.042;9.092;2022-10-13T02:05:08;30.70;;;11.30;;
15603;SDS011;7902;49.042;9.092;2022-10-13T02:07:37;36.63;;;12.33;;
15603;SDS011;7902;49.042;9.092;2022-10-13T02:10:26;31.83;;;13.47;;
15603;SDS011;7902;49.042;9.092;2022-10-13T02:13:04;28.30;;;12.83;;
15603;SDS011;7902;49.042;9.092;2022-10-13T02:15:36;47.00;;;13.97;;
15603;SDS011;7902;49.042;9.092;2022-10-13T02:18:06;37.73;;;12.03;;
15603;SDS011;7902;49.042;9.092;2022-10-13T02:20:33;42.80;;;13.87;;
15603;SDS011;7902;49.042;9.092;2022-10-13T02:23:02;38.47;;;13.30;;
15603;SDS011;7902;49.042;9.092;2022-10-13T02:25:32;43.30;;;13.30;;
15603;SDS011;7902;49.042;9.092;2022-10-13T02:27:58;29.60;;;13.27;;
15603;SDS011;7902;49.042;9.092;2022-10-13T02:30:27;30.57;;;12.27;;
15603;SDS011;7902;49.042;9.092;2022-10-13T02:32:54;27.00;;;12.13;;
15603;SDS011;7902;49.042;9.092;2022-10-13T02:35:20;27.60;;;12.13;;
15603;SDS011;7902;49.042;9.092;2022-10-13T02:37:46;36.70;;;12.53;;
15603;SDS011;7902;49.042;9.092;2022-10-13T02:40:12;32.73;;;13.37;;
15603;SDS011;7902;49.042;9.092;2022-10-13T02:42:38;29.33;;;12.33;;
15603;SDS011;7902;49.042;9.092;2022-10-13T02:45:04;44.47;;;13.67;;
15603;SDS011;7902;49.042;9.092;2022-10-13T02:47:31;41.23;;;13.53;;
15603;SDS011;7902;49.042;9.092;2022-10-13T02:49:57;31.73;;;14.00;;
15603;SDS011;7902;49.042;9.092;2022-10-13T02:52:23;32.17;;;13.50;;
15603;SDS011;7902;49.042;9.092;2022-10-13T02:54:49;32.50;;;12.53;;
15603;SDS011;7902;49.042;9.092;2022-10-13T02:57:16;36.47;;;12.70;;
15603;SDS011;7902;49.042;9.092;2022-10-13T02:59:42;31.90;;;12.33;;
15603;SDS011;7902;49.042;9.092;2022-10-13T03:02:08;42.27;;;13.10;;
15603;SDS011;7902;49.042;9.092;2022-10-13T03:04:34;31.57;;;13.27;;
15603;SDS011;7902;49.042;9.092;2022-10-13T03:07:00;35.10;;;15.00;;
15603;SDS011;7902;49.042;9.092;2022-10-13T03:09:26;33.73;;;11.90;;
15603;SDS011;7902;49.042;9.092;2022-10-13T03:11:52;28.57;;;12.70;;
15603;SDS011;7902;49.042;9.092;2022-10-13T03:14:18;30.73;;;11.87;;
15603;SDS011;7902;49.042;9.092;2022-10-13T03:16:44;32.80;;;13.53;;
15603;SDS011;7902;49.042;9.092;2022-10-13T03:19:10;37.67;;;12.53;;
15603;SDS011;7902;49.042;9.092;2022-10-13T03:21:37;31.47;;;12.33;;
15603;SDS011;7902;49.042;9.092;2022-10-13T03:24:04;36.37;;;14.07;;
15603;SDS011;7902;49.042;9.092;2022-10-13T03:26:31;35.73;;;13.03;;
15603;SDS011;7902;49.042;9.092;2022-10-13T03:28:57;41.83;;;16.70;;
15603;SDS011;7902;49.042;9.092;2022-10-13T03:31:24;34.63;;;13.87;;
15603;SDS011;7902;49.042;9.092;2022-10-13T03:33:50;43.27;;;13.63;;
15603;SDS011;7902;49.042;9.092;2022-10-13T03:36:16;29.77;;;13.63;;
15603;SDS011;7902;49.042;9.092;2022-10-13T03:38:43;29.10;;;12.60;;
15603;SDS011;7902;49.042;9.092;2022-10-13T03:41:10;35.13;;;14.37;;
15603;SDS011;7902;49.042;9.092;2022-10-13T03:43:39;34.80;;;14.17;;
15603;SDS011;7902;49.042;9.092;2022-10-13T03:46:06;40.60;;;13.80;;
15603;SDS011;7902;49.042;9.092;2022-10-13T03:48:34;41.00;;;13.30;;
15603;SDS011;7902;49.042;9.092;2022-10-13T03:51:04;33.13;;;13.63;;
15603;SDS011;7902;49.042;9.092;2022-10-13T03:53:31;31.83;;;12.60;;
15603;SDS011;7902;49.042;9.092;2022-10-13T03:55:57;28.10;;;12.87;;
15603;SDS011;7902;49.042;9.092;2022-10-13T03:58:23;34.30;;;12.83;;
15603;SDS011;7902;49.042;9.092;2022-10-13T04:00:50;30.03;;;11.60;;
15603;SDS011;7902;49.042;9.092;2022-10-13T04:03:18;35.97;;;13.33;;
15603;SDS011;7902;49.042;9.092;2022-10-13T04:05:44;32.87;;;11.97;;
15603;SDS011;7902;49.042;9.092;2022-10-13T04:08:10;31.93;;;14.57;;
15603;SDS011;7902;49.042;9.092;2022-10-13T04:10:37;30.20;;;12.63;;
15603;SDS011;7902;49.042;9.092;2022-10-13T04:13:03;33.50;;;12.43;;
15603;SDS011;7902;49.042;9.092;2022-10-13T04:15:30;39.47;;;13.40;;
15603;SDS011;7902;49.042;9.092;2022-10-13T04:18:00;49.20;;;12.90;;
15603;SDS011;7902;49.042;9.092;2022-10-13T04:20:26;34.60;;;12.43;;
15603;SDS011;7902;49.042;9.092;2022-10-13T04:22:52;30.80;;;12.80;;
15603;SDS011;7902;49.042;9.092;2022-10-13T04:25:18;35.73;;;13.90;;
15603;SDS011;7902;49.042;9.092;2022-10-13T04:27:44;28.20;;;12.87;;
15603;SDS011;7902;49.042;9.092;2022-10-13T04:30:12;40.83;;;13.80;;
15603;SDS011;7902;49.042;9.092;2022-10-13T04:32:39;37.20;;;13.40;;
15603;SDS011;7902;49.042;9.092;2022-10-13T04:35:05;35.00;;;13.17;;
15603;SDS011;7902;49.042;9.092;2022-10-13T04:37:31;35.07;;;13.10;;
15603;SDS011;7902;49.042;9.092;2022-10-13T04:39:57;43.73;;;14.37;;
15603;SDS011;7902;49.042;9.092;2022-10-13T04:42:23;35.53;;;14.30;;
15603;SDS011;7902;49.042;9.092;2022-10-13T04:44:48;41.70;;;14.87;;
15603;SDS011;7902;49.042;9.092;2022-10-13T04:47:14;46.30;;;14.20;;
15603;SDS011;7902;49.042;9.092;2022-10-13T04:49:40;35.60;;;14.87;;
15603;SDS011;7902;49.042;9.092;2022-10-13T04:52:06;35.87;;;15.10;;
15603;SDS011;7902;49.042;9.092;2022-10-13T04:54:32;42.87;;;14.23;;
15603;SDS011;7902;49.042;9.092;2022-10-13T04:56:58;40.47;;;14.83;;
15603;SDS011;7902;49.042;9.092;2022-10-13T04:59:24;38.60;;;14.70;;
15603;SDS011;7902;49.042;9.092;2022-10-13T05:01:50;43.77;;;14.90;;
15603;SDS011;7902;49.042;9.092;2022-10-13T05:04:16;37.20;;;15.20;;
15603;SDS011;7902;49.042;9.092;2022-10-13T05:06:41;39.57;;;15.70;;
15603;SDS011;7902;49.042;9.092;2022-10-13T05:09:08;43.13;;;15.47;;
15603;SDS011;7902;49.042;9.092;2022-10-13T05:11:40;38.13;;;15.57;;
15603;SDS011;7902;49.042;9.092;2022-10-13T05:14:06;41.87;;;15.10;;
15603;SDS011;7902;49.042;9.092;2022-10-13T05:16:32;42.93;;;14.83;;
15603;SDS011;7902;49.042;9.092;2022-10-13T05:18:58;36.37;;;13.87;;
15603;SDS011;7902;49.042;9.092;2022-10-13T05:21:25;28.77;;;13.63;;
15603;SDS011;7902;49.042;9.092;2022-10-13T05:23:53;36.17;;;13.67;;
15603;SDS011;7902;49.042;9.092;2022-10-13T05:26:21;42.10;;;14.20;;
15603;SDS011;7902;49.042;9.092;2022-10-13T05:28:49;36.90;;;13.17;;
15603;SDS011;7902;49.042;9.092;2022-10-13T05:31:18;35.57;;;13.97;;
15603;SDS011;7902;49.042;9.092;2022-10-13T05:33:48;46.93;;;14.20;;
15603;SDS011;7902;49.042;9.092;2022-10-13T05:36:17;33.00;;;14.37;;
15603;SDS011;7902;49.042;9.092;2022-10-13T05:38:49;34.30;;;14.10;;
15603;SDS011;7902;49.042;9.092;2022-10-13T05:41:19;52.17;;;14.37;;
15603;SDS011;7902;49.042;9.092;2022-10-13T05:43:47;38.00;;;14.50;;
15603;SDS011;7902;49.042;9.092;2022-10-13T05:46:13;36.20;;;13.27;;
15603;SDS011;7902;49.042;9.092;2022-10-13T05:48:39;29.83;;;13.70;;
15603;SDS011;7902;49.042;9.092;2022-10-13T05:51:06;39.93;;;13.50;;
15603;SDS011;7902;49.042;9.092;2022-10-13T05:53:38;55.40;;;15.23;;
15603;SDS011;7902;49.042;9.092;2022-10-13T05:56:09;48.13;;;13.53;;
15603;SDS011;7902;49.042;9.092;2022-10-13T05:58:41;40.93;;;15.10;;
15603;SDS011;7902;49.042;9.092;2022-10-13T06:01:11;31.77;;;12.87;;
15603;SDS011;7902;49.042;9.092;2022-10-13T06:03:40;33.67;;;13.93;;
15603;SDS011;7902;49.042;9.092;2022-10-13T06:06:07;39.47;;;13.93;;
15603;SDS011;7902;49.042;9.092;2022-10-13T06:08:34;43.83;;;15.63;;
15603;SDS011;7902;49.042;9.092;2022-10-13T06:11:01;31.77;;;13.77;;
15603;SDS011;7902;49.042;9.092;2022-10-13T06:13:27;40.50;;;14.10;;
15603;SDS011;7902;49.042;9.092;2022-10-13T06:15:53;39.80;;;14.40;;
15603;SDS011;7902;49.042;9.092;2022-10-13T06:18:19;33.17;;;13.17;;
15603;SDS011;7902;49.042;9.092;2022-10-13T06:20:45;33.97;;;14.20;;
15603;SDS011;7902;49.042;9.092;2022-10-13T06:23:11;34.53;;;14.33;;
15603;SDS011;7902;49.042;9.092;2022-10-13T06:25:36;39.03;;;13.07;;
15603;SDS011;7902;49.042;9.092;2022-10-13T06:28:03;34.53;;;13.97;;
15603;SDS011;7902;49.042;9.092;2022-10-13T06:30:29;41.30;;;13.50;;
15603;SDS011;7902;49.042;9.092;2022-10-13T06:32:55;42.30;;;14.70;;
15603;SDS011;7902;49.042;9.092;2022-10-13T06:35:21;36.63;;;13.73;;
15603;SDS011;7902;49.042;9.092;2022-10-13T06:37:48;42.23;;;14.10;;
15603;SDS011;7902;49.042;9.092;2022-10-13T06:40:14;34.93;;;13.73;;
15603;SDS011;7902;49.042;9.092;2022-10-13T06:42:41;48.77;;;14.80;;
15603;SDS011;7902;49.042;9.092;2022-10-13T06:45:07;31.70;;;12.70;;
15603;SDS011;7902;49.042;9.092;2022-10-13T06:47:33;42.67;;;15.37;;
15603;SDS011;7902;49.042;9.092;2022-10-13T06:49:59;34.23;;;13.27;;
15603;SDS011;7902;49.042;9.092;2022-10-13T06:52:25;38.17;;;12.93;;
15603;SDS011;7902;49.042;9.092;2022-10-13T06:54:51;55.23;;;13.70;;
15603;SDS011;7902;49.042;9.092;2022-10-13T06:57:17;27.90;;;12.67;;
15603;SDS011;7902;49.042;9.092;2022-10-13T06:59:42;31.10;;;12.80;;
15603;SDS011;7902;49.042;9.092;2022-10-13T07:02:09;31.33;;;12.83;;
15603;SDS011;7902;49.042;9.092;2022-10-13T07:04:35;36.53;;;12.20;;
15603;SDS011;7902;49.042;9.092;2022-10-13T07:07:01;31.30;;;12.60;;
15603;SDS011;7902;49.042;9.092;2022-10-13T07:09:27;32.30;;;13.10;;
15603;SDS011;7902;49.042;9.092;2022-10-13T07:11:53;38.40;;;13.40;;
15603;SDS011;7902;49.042;9.092;2022-10-13T07:14:19;36.50;;;13.00;;
15603;SDS011;7902;49.042;9.092;2022-10-13T07:16:48;43.57;;;14.00;;
15603;SDS011;7902;49.042;9.092;2022-10-13T07:19:14;36.60;;;12.33;;
15603;SDS011;7902;49.042;9.092;2022-10-13T07:21:40;35.40;;;12.70;;
15603;SDS011;7902;49.042;9.092;2022-10-13T07:24:06;30.20;;;13.17;;
15603;SDS011;7902;49.042;9.092;2022-10-13T07:26:32;27.80;;;11.97;;
15603;SDS011;7902;49.042;9.092;2022-10-13T07:28:58;34.67;;;13.50;;
15603;SDS011;7902;49.042;9.092;2022-10-13T07:31:25;40.70;;;13.40;;
15603;SDS011;7902;49.042;9.092;2022-10-13T07:33:51;36.33;;;12.50;;
15603;SDS011;7902;49.042;9.092;2022-10-13T07:36:17;34.57;;;12.70;;
15603;SDS011;7902;49.042;9.092;2022-10-13T07:38:44;23.47;;;10.27;;
15603;SDS011;7902;49.042;9.092;2022-10-13T07:41:11;29.70;;;12.30;;
15603;SDS011;7902;49.042;9.092;2022-10-13T07:43:37;58.23;;;13.17;;
15603;SDS011;7902;49.042;9.092;2022-10-13T07:46:03;41.47;;;13.43;;
15603;SDS011;7902;49.042;9.092;2022-10-13T07:48:30;44.80;;;12.03;;
15603;SDS011;7902;49.042;9.092;2022-10-13T07:50:57;38.40;;;14.50;;
15603;SDS011;7902;49.042;9.092;2022-10-13T07:53:23;42.83;;;11.57;;
15603;SDS011;7902;49.042;9.092;2022-10-13T07:55:49;26.77;;;11.40;;
15603;SDS011;7902;49.042;9.092;2022-10-13T07:58:15;31.40;;;13.13;;
15603;SDS011;7902;49.042;9.092;2022-10-13T08:00:41;36.53;;;13.80;;
15603;SDS011;7902;49.042;9.092;2022-10-13T08:03:07;39.10;;;13.33;;
15603;SDS011;7902;49.042;9.092;2022-10-13T08:05:32;36.93;;;12.30;;
15603;SDS011;7902;49.042;9.092;2022-10-13T08:08:00;33.57;;;12.90;;
15603;SDS011;7902;49.042;9.092;2022-10-13T08:10:26;30.70;;;12.23;;
15603;SDS011;7902;49.042;9.092;2022-10-13T08:12:53;42.53;;;12.90;;
15603;SDS011;7902;49.042;9.092;2022-10-13T08:15:19;45.77;;;11.60;;
15603;SDS011;7902;49.042;9.092;2022-10-13T08:17:45;35.30;;;12.03;;
15603;SDS011;7902;49.042;9.092;2022-10-13T08:20:11;34.07;;;13.93;;
15603;SDS011;7902;49.042;9.092;2022-10-13T08:22:38;32.77;;;13.10;;
15603;SDS011;7902;49.042;9.092;2022-10-13T08:25:04;33.07;;;12.83;;
15603;SDS011;7902;49.042;9.092;2022-10-13T08:27:31;49.77;;;25.70;;
15603;SDS011;7902;49.042;9.092;2022-10-13T08:29:57;73.60;;;21.33;;
15603;SDS011;7902;49.042;9.092;2022-10-13T08:32:23;34.60;;;14.73;;
15603;SDS011;7902;49.042;9.092;2022-10-13T08:34:49;35.20;;;12.60;;
15603;SDS011;7902;49.042;9.092;2022-10-13T08:37:16;29.40;;;10.90;;
15603;SDS011;7902;49.042;9.092;2022-10-13T08:39:42;31.60;;;12.60;;
15603;SDS011;7902;49.042;9.092;2022-10-13T08:42:16;29.17;;;10.90;;
15603;SDS011;7902;49.042;9.092;2022-10-13T08:45:05;33.70;;;12.27;;
15603;SDS011;7902;49.042;9.092;2022-10-13T08:47:43;31.23;;;10.80;;
15603;SDS011;7902;49.042;9.092;2022-10-13T08:50:31;34.03;;;10.70;;
15603;SDS011;7902;49.042;9.092;2022-10-13T08:53:10;35.33;;;13.67;;
15603;SDS011;7902;49.042;9.092;2022-10-13T08:55:45;41.77;;;11.00;;
15603;SDS011;7902;49.042;9.092;2022-10-13T08:58:22;58.23;;;25.50;;
15603;SDS011;7902;49.042;9.092;2022-10-13T09:03:47;59.30;;;22.23;;
15603;SDS011;7902;49.042;9.092;2022-10-13T09:09:04;45.73;;;19.17;;
15603;SDS011;7902;49.042;9.092;2022-10-13T09:11:33;35.20;;;14.50;;
15603;SDS011;7902;49.042;9.092;2022-10-13T09:14:03;31.57;;;12.50;;
15603;SDS011;7902;49.042;9.092;2022-10-13T09:16:37;28.10;;;10.20;;
15603;SDS011;7902;49.042;9.092;2022-10-13T09:27:41;31.70;;;11.97;;
15603;SDS011;7902;49.042;9.092;2022-10-13T09:30:29;36.93;;;11.60;;
15603;SDS011;7902;49.042;9.092;2022-10-13T09:33:18;38.37;;;15.07;;
15603;SDS011;7902;49.042;9.092;2022-10-13T09:35:46;32.87;;;11.77;;
15603;SDS011;7902;49.042;9.092;2022-10-13T09:38:20;28.97;;;10.27;;
15603;SDS011;7902;49.042;9.092;2022-10-13T09:43:32;65.60;;;27.80;;
15603;SDS011;7902;49.042;9.092;2022-10-13T09:45:58;66.63;;;30.43;;
15603;SDS011;7902;49.042;9.092;2022-10-13T09:48:35;58.97;;;24.90;;
15603;SDS011;7902;49.042;9.092;2022-10-13T09:51:02;38.77;;;16.50;;
15603;SDS011;7902;49.042;9.092;2022-10-13T09:53:30;47.20;;;14.00;;
15603;SDS011;7902;49.042;9.092;2022-10-13T09:58:50;119.10;;;52.27;;
15603;SDS011;7902;49.042;9.092;2022-10-13T10:01:23;80.60;;;31.87;;
15603;SDS011;7902;49.042;9.092;2022-10-13T10:03:52;59.23;;;23.67;;
15603;SDS011;7902;49.042;9.092;2022-10-13T10:06:19;43.53;;;17.73;;
15603;SDS011;7902;49.042;9.092;2022-10-13T10:08:50;33.50;;;13.43;;
15603;SDS011;7902;49.042;9.092;2022-10-13T10:11:29;67.70;;;27.27;;
15603;SDS011;7902;49.042;9.092;2022-10-13T10:14:14;71.37;;;23.50;;
15603;SDS011;7902;49.042;9.092;2022-10-13T10:16:49;49.70;;;21.17;;
15603;SDS011;7902;49.042;9.092;2022-10-13T10:19:23;40.10;;;18.53;;
15603;SDS011;7902;49.042;9.092;2022-10-13T10:24:33;62.60;;;15.73;;
15603;SDS011;7902;49.042;9.092;2022-10-13T10:27:17;40.70;;;12.40;;
15603;SDS011;7902;49.042;9.092;2022-10-13T10:29:49;27.13;;;11.20;;
15603;SDS011;7902;49.042;9.092;2022-10-13T10:38:34;61.73;;;29.10;;
15603;SDS011;7902;49.042;9.092;2022-10-13T10:40:54;32.43;;;14.20;;
15603;SDS011;7902;49.042;9.092;2022-10-13T10:43:37;28.90;;;10.10;;
15603;SDS011;7902;49.042;9.092;2022-10-13T10:46:04;38.27;;;12.77;;
15603;SDS011;7902;49.042;9.092;2022-10-13T10:48:39;34.17;;;12.90;;
15603;SDS011;7902;49.042;9.092;2022-10-13T10:51:08;49.57;;;21.37;;
15603;SDS011;7902;49.042;9.092;2022-10-13T10:59:12;44.17;;;14.50;;
15603;SDS011;7902;49.042;9.092;2022-10-13T11:04:30;37.03;;;14.80;;
15603;SDS011;7902;49.042;9.092;2022-10-13T11:08:23;54.43;;;24.80;;
15603;SDS011;7902;49.042;9.092;2022-10-13T11:10:20;32.67;;;11.43;;
15603;SDS011;7902;49.042;9.092;2022-10-13T11:21:20;21.07;;;7.57;;
15603;SDS011;7902;49.042;9.092;2022-10-13T11:23:47;26.30;;;11.07;;
15603;SDS011;7902;49.042;9.092;2022-10-13T11:26:18;28.43;;;9.13;;
15603;SDS011;7902;49.042;9.092;2022-10-13T11:28:50;25.13;;;8.40;;
15603;SDS011;7902;49.042;9.092;2022-10-13T11:31:27;36.87;;;8.30;;
15603;SDS011;7902;49.042;9.092;2022-10-13T11:33:56;21.40;;;6.77;;
15603;SDS011;7902;49.042;9.092;2022-10-13T11:36:27;34.83;;;7.60;;
15603;SDS011;7902;49.042;9.092;2022-10-13T11:42:16;22.60;;;6.90;;
15603;SDS011;7902;49.042;9.092;2022-10-13T11:44:59;24.27;;;7.87;;
15603;SDS011;7902;49.042;9.092;2022-10-13T11:53:17;28.57;;;9.00;;
15603;SDS011;7902;49.042;9.092;2022-10-13T11:58:20;22.37;;;8.03;;
15603;SDS011;7902;49.042;9.092;2022-10-13T12:03:24;30.80;;;8.83;;
15603;SDS011;7902;49.042;9.092;2022-10-13T12:05:50;28.97;;;9.77;;
15603;SDS011;7902;49.042;9.092;2022-10-13T12:08:17;77.83;;;25.70;;
15603;SDS011;7902;49.042;9.092;2022-10-13T12:10:45;48.60;;;15.13;;
15603;SDS011;7902;49.042;9.092;2022-10-13T12:13:23;50.13;;;16.23;;
15603;SDS011;7902;49.042;9.092;2022-10-13T12:15:55;39.57;;;9.20;;
15603;SDS011;7902;49.042;9.092;2022-10-13T12:18:29;25.20;;;8.20;;
15603;SDS011;7902;49.042;9.092;2022-10-13T12:21:00;29.67;;;8.33;;
15603;SDS011;7902;49.042;9.092;2022-10-13T12:23:29;22.33;;;7.57;;
15603;SDS011;7902;49.042;9.092;2022-10-13T12:25:57;74.50;;;34.97;;
15603;SDS011;7902;49.042;9.092;2022-10-13T12:28:45;47.97;;;21.10;;
15603;SDS011;7902;49.042;9.092;2022-10-13T12:31:15;39.67;;;12.73;;
15603;SDS011;7902;49.042;9.092;2022-10-13T12:33:56;25.70;;;8.70;;
15603;SDS011;7902;49.042;9.092;2022-10-13T12:36:30;22.90;;;7.00;;
15603;SDS011;7902;49.042;9.092;2022-10-13T12:39:06;34.53;;;10.93;;
15603;SDS011;7902;49.042;9.092;2022-10-13T12:41:39;27.70;;;7.53;;
15603;SDS011;7902;49.042;9.092;2022-10-13T12:44:10;25.93;;;8.53;;
15603;SDS011;7902;49.042;9.092;2022-10-13T12:51:47;20.60;;;6.77;;
15603;SDS011;7902;49.042;9.092;2022-10-13T12:54:20;23.73;;;6.83;;
15603;SDS011;7902;49.042;9.092;2022-10-13T12:56:49;31.17;;;9.00;;
15603;SDS011;7902;49.042;9.092;2022-10-13T12:59:18;22.50;;;7.10;;
15603;SDS011;7902;49.042;9.092;2022-10-13T13:01:45;19.47;;;5.73;;
15603;SDS011;7902;49.042;9.092;2022-10-13T13:09:25;22.83;;;6.23;;
15603;SDS011;7902;49.042;9.092;2022-10-13T13:14:43;25.97;;;9.80;;
15603;SDS011;7902;49.042;9.092;2022-10-13T13:17:23;25.63;;;6.37;;
15603;SDS011;7902;49.042;9.092;2022-10-13T13:19:54;24.27;;;6.90;;
15603;SDS011;7902;49.042;9.092;2022-10-13T13:22:22;24.90;;;7.40;;
15603;SDS011;7902;49.042;9.092;2022-10-13T13:24:48;19.50;;;5.87;;
15603;SDS011;7902;49.042;9.092;2022-10-13T13:29:53;28.67;;;9.10;;
15603;SDS011;7902;49.042;9.092;2022-10-13T13:32:20;35.90;;;6.97;;
15603;SDS011;7902;49.042;9.092;2022-10-13T13:34:47;25.30;;;5.37;;
15603;SDS011;7902;49.042;9.092;2022-10-13T13:37:25;27.37;;;5.77;;
15603;SDS011;7902;49.042;9.092;2022-10-13T13:39:54;20.70;;;5.53;;
15603;SDS011;7902;49.042;9.092;2022-10-13T13:42:20;19.83;;;5.60;;
15603;SDS011;7902;49.042;9.092;2022-10-13T13:44:46;22.17;;;4.80;;
15603;SDS011;7902;49.042;9.092;2022-10-13T13:47:16;31.53;;;6.40;;
15603;SDS011;7902;49.042;9.092;2022-10-13T13:49:44;25.20;;;5.17;;
15603;SDS011;7902;49.042;9.092;2022-10-13T13:52:11;23.33;;;5.40;;
15603;SDS011;7902;49.042;9.092;2022-10-13T13:54:37;21.30;;;5.43;;
15603;SDS011;7902;49.042;9.092;2022-10-13T13:57:03;23.87;;;6.10;;
15603;SDS011;7902;49.042;9.092;2022-10-13T13:59:29;23.43;;;7.77;;
15603;SDS011;7902;49.042;9.092;2022-10-13T14:01:55;24.67;;;6.77;;
15603;SDS011;7902;49.042;9.092;2022-10-13T14:04:21;21.63;;;5.80;;
15603;SDS011;7902;49.042;9.092;2022-10-13T14:06:47;27.33;;;7.10;;
15603;SDS011;7902;49.042;9.092;2022-10-13T14:09:13;26.23;;;5.83;;
15603;SDS011;7902;49.042;9.092;2022-10-13T14:11:39;27.13;;;5.43;;
15603;SDS011;7902;49.042;9.092;2022-10-13T14:14:05;32.27;;;5.87;;
15603;SDS011;7902;49.042;9.092;2022-10-13T14:16:31;23.23;;;6.60;;
15603;SDS011;7902;49.042;9.092;2022-10-13T14:18:56;28.23;;;5.60;;
15603;SDS011;7902;49.042;9.092;2022-10-13T14:21:22;23.93;;;5.50;;
15603;SDS011;7902;49.042;9.092;2022-10-13T14:23:48;19.67;;;5.63;;
15603;SDS011;7902;49.042;9.092;2022-10-13T14:26:14;25.70;;;5.37;;
15603;SDS011;7902;49.042;9.092;2022-10-13T14:28:41;24.70;;;5.60;;
15603;SDS011;7902;49.042;9.092;2022-10-13T14:31:08;25.47;;;6.00;;
15603;SDS011;7902;49.042;9.092;2022-10-13T14:33:34;22.97;;;6.00;;
15603;SDS011;7902;49.042;9.092;2022-10-13T14:36:00;25.43;;;5.70;;
15603;SDS011;7902;49.042;9.092;2022-10-13T14:38:27;24.00;;;5.50;;
15603;SDS011;7902;49.042;9.092;2022-10-13T14:41:03;25.13;;;5.27;;
15603;SDS011;7902;49.042;9.092;2022-10-13T14:43:30;30.40;;;8.20;;
15603;SDS011;7902;49.042;9.092;2022-10-13T14:46:00;28.23;;;6.33;;
15603;SDS011;7902;49.042;9.092;2022-10-13T14:48:28;28.73;;;6.20;;
15603;SDS011;7902;49.042;9.092;2022-10-13T14:50:56;52.20;;;17.40;;
15603;SDS011;7902;49.042;9.092;2022-10-13T14:53:22;37.67;;;8.67;;
15603;SDS011;7902;49.042;9.092;2022-10-13T14:55:51;19.40;;;5.23;;
15603;SDS011;7902;49.042;9.092;2022-10-13T14:58:17;19.43;;;5.20;;
15603;SDS011;7902;49.042;9.092;2022-10-13T15:00:43;20.70;;;5.33;;
15603;SDS011;7902;49.042;9.092;2022-10-13T15:03:09;25.93;;;5.40;;
15603;SDS011;7902;49.042;9.092;2022-10-13T15:05:35;29.40;;;7.87;;
15603;SDS011;7902;49.042;9.092;2022-10-13T15:08:01;50.73;;;23.80;;
15603;SDS011;7902;49.042;9.092;2022-10-13T15:10:27;21.10;;;5.97;;
15603;SDS011;7902;49.042;9.092;2022-10-13T15:12:53;20.90;;;5.80;;
15603;SDS011;7902;49.042;9.092;2022-10-13T15:15:18;31.60;;;5.73;;
15603;SDS011;7902;49.042;9.092;2022-10-13T15:17:44;28.77;;;6.83;;
15603;SDS011;7902;49.042;9.092;2022-10-13T15:20:10;22.17;;;5.90;;
15603;SDS011;7902;49.042;9.092;2022-10-13T15:22:36;33.10;;;5.00;;
15603;SDS011;7902;49.042;9.092;2022-10-13T15:25:02;28.40;;;5.73;;
15603;SDS011;7902;49.042;9.092;2022-10-13T15:27:32;31.80;;;6.23;;
15603;SDS011;7902;49.042;9.092;2022-10-13T15:29:59;19.60;;;5.30;;
15603;SDS011;7902;49.042;9.092;2022-10-13T15:32:25;26.33;;;8.13;;
15603;SDS011;7902;49.042;9.092;2022-10-13T15:34:51;28.00;;;7.60;;
15603;SDS011;7902;49.042;9.092;2022-10-13T15:37:17;25.53;;;7.63;;
15603;SDS011;7902;49.042;9.092;2022-10-13T15:39:43;26.27;;;9.07;;
15603;SDS011;7902;49.042;9.092;2022-10-13T15:42:09;28.53;;;12.17;;
15603;SDS011;7902;49.042;9.092;2022-10-13T15:44:36;26.13;;;7.00;;
15603;SDS011;7902;49.042;9.092;2022-10-13T15:47:02;32.93;;;5.63;;
15603;SDS011;7902;49.042;9.092;2022-10-13T15:49:29;30.00;;;6.83;;
15603;SDS011;7902;49.042;9.092;2022-10-13T15:51:55;36.27;;;10.80;;
15603;SDS011;7902;49.042;9.092;2022-10-13T15:54:21;29.33;;;10.73;;
15603;SDS011;7902;49.042;9.092;2022-10-13T15:56:47;68.63;;;25.33;;
15603;SDS011;7902;49.042;9.092;2022-10-13T15:59:13;28.50;;;6.70;;
15603;SDS011;7902;49.042;9.092;2022-10-13T16:01:39;29.67;;;5.67;;
15603;SDS011;7902;49.042;9.092;2022-10-13T16:04:05;22.10;;;5.73;;
15603;SDS011;7902;49.042;9.092;2022-10-13T16:06:31;22.73;;;6.33;;
15603;SDS011;7902;49.042;9.092;2022-10-13T16:08:58;18.40;;;4.90;;
15603;SDS011;7902;49.042;9.092;2022-10-13T16:11:25;26.17;;;5.50;;
15603;SDS011;7902;49.042;9.092;2022-10-13T16:13:52;50.60;;;11.90;;
15603;SDS011;7902;49.042;9.092;2022-10-13T16:16:18;40.27;;;12.67;;